createdAt,value
2019-02-18T00:01:15.533Z,101494.83
2019-02-18T00:03:41.535Z,101499.61
2019-02-18T00:06:07.512Z,101493.62
2019-02-18T00:08:33.521Z,101498.05
2019-02-18T00:10:59.504Z,101498.78
2019-02-18T00:13:25.479Z,101505.11
2019-02-18T00:15:51.508Z,101498.16
2019-02-18T00:18:17.495Z,101500.79
2019-02-18T00:20:43.500Z,101496.84
2019-02-18T00:23:09.490Z,101500.09
2019-02-18T00:25:35.828Z,101496.49
2019-02-18T00:28:01.897Z,101497.08
2019-02-18T00:30:27.881Z,101499.71
2019-02-18T00:32:53.885Z,101495.90
2019-02-18T00:35:19.947Z,101498.98
2019-02-18T00:37:45.956Z,101496.97
2019-02-18T00:40:11.929Z,101499.12
2019-02-18T00:42:37.917Z,101505.33
2019-02-18T00:45:03.888Z,101505.33
2019-02-18T00:47:29.869Z,101505.70
2019-02-18T00:49:55.892Z,101502.10
2019-02-18T00:52:21.880Z,101497.67
2019-02-18T00:54:47.889Z,101498.88
2019-02-18T00:57:13.871Z,101500.55
2019-02-18T00:59:39.876Z,101502.94
2019-02-18T01:02:05.867Z,101495.66
2019-02-18T01:04:31.948Z,101496.97
2019-02-18T01:06:57.929Z,101499.12
2019-02-18T01:09:23.923Z,101495.38
2019-02-18T01:11:49.970Z,101490.60
2019-02-18T01:14:15.952Z,101498.50
2019-02-18T01:16:41.946Z,101495.03
2019-02-18T01:19:07.922Z,101496.45
2019-02-18T01:21:33.906Z,101494.69
2019-02-18T01:23:59.886Z,101494.79
2019-02-18T01:26:25.879Z,101490.49
2019-02-18T01:28:51.880Z,101495.76
2019-02-18T01:31:17.859Z,101490.11
2019-02-18T01:33:43.836Z,101487.48
2019-02-18T01:36:09.832Z,101487.86
2019-02-18T01:38:35.803Z,101490.84
2019-02-18T01:41:01.796Z,101486.16
2019-02-18T01:43:27.768Z,101482.59
2019-02-18T01:45:53.762Z,101484.84
2019-02-18T01:48:19.746Z,101483.05
2019-02-18T01:50:45.757Z,101481.28
2019-02-18T01:53:11.781Z,101477.44
2019-02-18T01:55:37.788Z,101477.09
2019-02-18T01:58:03.767Z,101484.84
2019-02-18T02:00:29.750Z,101485.69
2019-02-18T02:02:55.758Z,101484.13
2019-02-18T02:05:21.753Z,101481.04
2019-02-18T02:07:55.940Z,101470.13
2019-02-18T02:10:15.484Z,101478.03
2019-02-18T02:12:41.473Z,101466.91
2019-02-18T02:15:07.458Z,101468.57
2019-02-18T02:17:33.480Z,101469.53
2019-02-18T02:19:59.521Z,101460.67
2019-02-18T02:22:25.520Z,101455.06
2019-02-18T02:24:51.541Z,101462.58
2019-02-18T02:27:17.718Z,101460.19
2019-02-18T02:29:43.806Z,101456.38
2019-02-18T02:32:09.785Z,101455.31
2019-02-18T02:34:35.762Z,101452.09
2019-02-18T02:37:01.758Z,101446.23
2019-02-18T02:39:27.723Z,101446.23
2019-02-18T02:41:53.733Z,101441.69
2019-02-18T02:44:19.803Z,101440.23
2019-02-18T02:46:45.786Z,101440.13
2019-02-18T02:49:11.850Z,101450.17
2019-02-18T02:51:37.829Z,101447.06
2019-02-18T02:54:03.825Z,101454.02
2019-02-18T02:56:29.801Z,101447.78
2019-02-18T02:58:55.802Z,101445.05
2019-02-18T03:01:21.773Z,101444.19
2019-02-18T03:03:47.763Z,101438.81
2019-02-18T03:06:13.746Z,101440.02
2019-02-18T03:08:39.759Z,101438.12
2019-02-18T03:11:05.741Z,101437.25
2019-02-18T03:13:31.729Z,101434.16
2019-02-18T03:15:57.723Z,101434.52
2019-02-18T03:18:23.715Z,101430.56
2019-02-18T03:20:49.753Z,101429.73
2019-02-18T03:23:15.724Z,101434.52
2019-02-18T03:25:41.701Z,101429.59
2019-02-18T03:28:07.670Z,101429.25
2019-02-18T03:30:33.744Z,101426.61
2019-02-18T03:32:59.715Z,101429.59
2019-02-18T03:35:25.694Z,101431.39
2019-02-18T03:37:51.670Z,101426.61
2019-02-18T03:40:17.672Z,101434.41
2019-02-18T03:42:43.653Z,101430.91
2019-02-18T03:45:09.710Z,101428.77
2019-02-18T03:47:35.694Z,101433.92
2019-02-18T03:50:01.757Z,101436.55
2019-02-18T03:52:27.745Z,101433.44
2019-02-18T03:54:53.759Z,101440.36
2019-02-18T03:57:19.754Z,101436.41
2019-02-18T03:59:45.740Z,101442.06
2019-02-18T04:02:11.805Z,101432.47
2019-02-18T04:04:37.772Z,101437.63
2019-02-18T04:07:03.770Z,101434.99
2019-02-18T04:09:29.753Z,101433.67
2019-02-18T04:11:55.848Z,101433.19
2019-02-18T04:14:21.825Z,101429.73
2019-02-18T04:16:47.830Z,101430.56
2019-02-18T04:19:13.900Z,101431.88
2019-02-18T04:21:39.908Z,101433.56
2019-02-18T04:24:05.894Z,101434.40
2019-02-18T04:26:31.867Z,101431.39
2019-02-18T04:28:57.853Z,101436.20
2019-02-18T04:31:23.850Z,101426.50
2019-02-18T04:33:49.840Z,101426.50
2019-02-18T04:36:15.827Z,101430.45
2019-02-18T04:38:41.849Z,101426.02
2019-02-18T04:41:07.855Z,101434.16
2019-02-18T04:43:33.839Z,101430.34
2019-02-18T04:45:59.924Z,101430.34
2019-02-18T04:48:25.942Z,101428.16
2019-02-18T04:50:51.938Z,101428.16
2019-02-18T04:53:17.914Z,101429.48
2019-02-18T04:55:43.972Z,101426.84
2019-02-18T04:58:09.982Z,101430.34
2019-02-18T05:00:36.032Z,101428.75
2019-02-18T05:03:02.041Z,101429.73
2019-02-18T05:05:28.026Z,101424.45
2019-02-18T05:07:54.000Z,101431.88
2019-02-18T05:10:19.986Z,101428.17
2019-02-18T05:12:46.005Z,101424.70
2019-02-18T05:15:12.003Z,101433.44
2019-02-18T05:17:37.988Z,101432.95
2019-02-18T05:20:03.995Z,101431.28
2019-02-18T05:22:30.016Z,101434.41
2019-02-18T05:24:56.018Z,101431.28
2019-02-18T05:27:32.775Z,101434.27
2019-02-18T05:29:49.711Z,101433.67
2019-02-18T05:32:15.705Z,101431.63
2019-02-18T05:34:41.765Z,101425.88
2019-02-18T05:37:07.780Z,101431.04
2019-02-18T05:39:33.767Z,101426.13
2019-02-18T05:41:59.801Z,101426.13
2019-02-18T05:44:25.856Z,101432.25
2019-02-18T05:46:51.882Z,101429.13
2019-02-18T05:49:17.863Z,101432.25
2019-02-18T05:51:43.866Z,101430.45
2019-02-18T05:54:09.843Z,101434.40
2019-02-18T05:56:35.829Z,101434.88
2019-02-18T05:59:01.819Z,101438.83
2019-02-18T06:01:27.806Z,101434.88
2019-02-18T06:03:53.802Z,101432.36
2019-02-18T06:06:19.790Z,101424.45
2019-02-18T06:08:45.805Z,101422.80
2019-02-18T06:11:11.864Z,101414.89
2019-02-18T06:13:37.852Z,101411.40
2019-02-18T06:16:03.879Z,101408.31
2019-02-18T06:18:29.859Z,101414.03
2019-02-18T06:20:55.839Z,101412.72
2019-02-18T06:23:21.841Z,101417.88
2019-02-18T06:25:47.937Z,101417.88
2019-02-18T06:28:14.066Z,101419.78
2019-02-18T06:30:40.061Z,101412.72
2019-02-18T06:33:06.054Z,101415.59
2019-02-18T06:35:32.074Z,101416.80
2019-02-18T06:37:58.072Z,101418.22
2019-02-18T06:40:24.140Z,101411.64
2019-02-18T06:42:50.137Z,101408.06
2019-02-18T06:45:16.187Z,101409.87
2019-02-18T06:47:42.164Z,101408.06
2019-02-18T06:50:08.136Z,101413.67
2019-02-18T06:52:34.172Z,101413.33
2019-02-18T06:55:00.319Z,101409.00
2019-02-18T06:57:26.419Z,101411.19
2019-02-18T06:59:52.395Z,101406.75
2019-02-18T07:02:18.387Z,101409.98
2019-02-18T07:04:44.377Z,101410.70
2019-02-18T07:07:10.359Z,101417.17
2019-02-18T07:09:36.335Z,101416.31
2019-02-18T07:12:02.338Z,101416.80
2019-02-18T07:14:28.299Z,101417.39
2019-02-18T07:16:54.281Z,101416.56
2019-02-18T07:19:20.261Z,101421.00
2019-02-18T07:21:46.245Z,101424.11
2019-02-18T07:24:12.224Z,101413.69
2019-02-18T07:26:38.229Z,101412.02
2019-02-18T07:29:04.205Z,101413.34
2019-02-18T07:31:30.223Z,101414.66
2019-02-18T07:33:56.201Z,101412.86
2019-02-18T07:36:22.256Z,101410.71
2019-02-18T07:38:48.261Z,101415.11
2019-02-18T07:41:14.239Z,101414.28
2019-02-18T07:43:40.264Z,101419.06
2019-02-18T07:46:06.312Z,101413.45
2019-02-18T07:48:32.314Z,101409.16
2019-02-18T07:50:58.346Z,101407.70
2019-02-18T07:53:24.404Z,101413.92
2019-02-18T07:55:50.438Z,101415.59
2019-02-18T07:58:16.426Z,101406.03
2019-02-18T08:00:42.444Z,101413.82
2019-02-18T08:03:08.447Z,101412.50
2019-02-18T08:05:34.462Z,101410.70
2019-02-18T08:08:00.451Z,101399.79
2019-02-18T08:10:26.478Z,101405.92
2019-02-18T08:12:52.495Z,101402.08
2019-02-18T08:15:18.479Z,101399.44
2019-02-18T08:17:44.465Z,101399.93
2019-02-18T08:20:10.539Z,101394.28
2019-02-18T08:22:36.522Z,101400.04
2019-02-18T08:25:02.512Z,101397.41
2019-02-18T08:27:28.583Z,101407.45
2019-02-18T08:29:54.557Z,101410.09
2019-02-18T08:32:20.659Z,101406.76
2019-02-18T08:34:46.740Z,101398.86
2019-02-18T08:37:12.719Z,101406.28
2019-02-18T08:39:38.724Z,101407.21
2019-02-18T08:42:04.700Z,101407.21
2019-02-18T08:44:30.687Z,101398.00
2019-02-18T08:46:56.711Z,101399.69
2019-02-18T08:49:22.699Z,101396.09
2019-02-18T08:51:48.752Z,101397.78
2019-02-18T08:54:14.752Z,101391.66
2019-02-18T08:56:40.818Z,101385.32
2019-02-18T08:59:06.785Z,101391.41
2019-02-18T09:01:32.760Z,101390.09
2019-02-18T09:03:58.749Z,101388.55
2019-02-18T09:06:24.742Z,101388.44
2019-02-18T09:08:50.788Z,101385.94
2019-02-18T09:11:16.805Z,101383.05
2019-02-18T09:13:42.820Z,101384.60
2019-02-18T09:16:08.893Z,101376.94
2019-02-18T09:18:36.861Z,101375.63
2019-02-18T09:21:02.836Z,101376.69
2019-02-18T09:23:28.835Z,101377.41
2019-02-18T09:25:55.627Z,101370.95
2019-02-18T09:28:22.769Z,101362.58
2019-02-18T09:30:48.808Z,101367.25
2019-02-18T09:33:14.797Z,101367.25
2019-02-18T09:35:40.827Z,101372.27
2019-02-18T09:38:07.917Z,101369.03
2019-02-18T09:40:43.925Z,101365.80
2019-02-18T09:43:01.755Z,101368.67
2019-02-18T09:45:27.758Z,101370.47
2019-02-18T09:47:54.438Z,101364.38
2019-02-18T09:50:20.608Z,101367.09
2019-02-18T09:52:46.616Z,101364.70
2019-02-18T09:55:12.615Z,101365.91
2019-02-18T09:57:38.681Z,101369.02
2019-02-18T10:00:04.740Z,101367.56
2019-02-18T10:02:30.730Z,101365.79
2019-02-18T10:04:56.753Z,101356.31
2019-02-18T10:07:22.782Z,101352.31
2019-02-18T10:09:48.835Z,101354.69
2019-02-18T10:12:18.283Z,101345.09
2019-02-18T10:14:42.589Z,101352.25
2019-02-18T10:17:08.585Z,101344.56
2019-02-18T10:19:34.576Z,101346.59
2019-02-18T10:22:00.590Z,101349.23
2019-02-18T10:24:26.560Z,101345.66
2019-02-18T10:26:52.592Z,101341.55
2019-02-18T10:29:18.694Z,101344.42
2019-02-18T10:31:44.695Z,101335.79
2019-02-18T10:34:10.728Z,101334.70
2019-02-18T10:36:36.742Z,101333.72
2019-02-18T10:39:02.744Z,101328.55
2019-02-18T10:41:28.787Z,101326.03
2019-02-18T10:43:54.868Z,101327.69
2019-02-18T10:46:20.868Z,101330.77
2019-02-18T10:48:46.879Z,101325.88
2019-02-18T10:51:12.866Z,101322.16
2019-02-18T10:53:38.930Z,101325.48
2019-02-18T10:56:05.008Z,101324.16
2019-02-18T10:58:31.013Z,101321.75
2019-02-18T11:00:57.126Z,101322.13
2019-02-18T11:03:23.100Z,101321.97
2019-02-18T11:05:49.106Z,101317.90
2019-02-18T11:08:15.159Z,101319.22
2019-02-18T11:10:41.171Z,101319.22
2019-02-18T11:13:07.153Z,101312.30
2019-02-18T11:15:33.167Z,101314.87
2019-02-18T11:17:59.150Z,101305.86
2019-02-18T11:20:25.122Z,101305.35
2019-02-18T11:22:51.132Z,101297.55
2019-02-18T11:25:17.111Z,101295.28
2019-02-18T11:27:43.116Z,101293.11
2019-02-18T11:30:09.172Z,101284.95
2019-02-18T11:32:35.555Z,101276.88
2019-02-18T11:35:01.553Z,101277.05
2019-02-18T11:37:27.631Z,101261.71
2019-02-18T11:39:53.619Z,101266.95
2019-02-18T11:42:19.602Z,101265.02
2019-02-18T11:44:45.608Z,101256.22
2019-02-18T11:47:11.618Z,101252.30
2019-02-18T11:49:37.708Z,101250.42
2019-02-18T11:52:03.687Z,101247.63
2019-02-18T11:54:29.677Z,101243.98
2019-02-18T11:56:55.787Z,101237.53
2019-02-18T11:59:24.211Z,101239.16
2019-02-18T12:01:49.559Z,101225.47
2019-02-18T12:04:15.607Z,101224.83
2019-02-18T12:06:41.616Z,101228.36
2019-02-18T12:09:08.986Z,101220.81
2019-02-18T12:11:38.068Z,101217.83
2019-02-18T12:14:02.881Z,101214.55
2019-02-18T12:16:28.937Z,101213.44
2019-02-18T12:18:55.061Z,101209.05
2019-02-18T12:21:21.031Z,101199.39
2019-02-18T12:23:47.116Z,101201.38
2019-02-18T12:26:13.141Z,101195.03
2019-02-18T12:28:39.190Z,101184.88
2019-02-18T12:31:05.714Z,101183.06
2019-02-18T12:33:31.762Z,101180.23
2019-02-18T12:35:57.756Z,101168.63
2019-02-18T12:38:23.837Z,101171.73
2019-02-18T12:40:49.933Z,101163.97
2019-02-18T12:43:15.997Z,101160.01
2019-02-18T12:45:41.986Z,101156.95
2019-02-18T12:48:08.072Z,101145.97
2019-02-18T12:50:34.441Z,101143.95
2019-02-18T12:53:00.470Z,101137.16
2019-02-18T12:55:26.646Z,101130.61
2019-02-18T12:57:52.986Z,101117.08
2019-02-18T13:00:18.986Z,101112.09
2019-02-18T13:02:45.345Z,101102.08
2019-02-18T13:05:11.514Z,101096.92
2019-02-18T13:07:37.536Z,101100.06
2019-02-18T13:10:05.366Z,101090.69
2019-02-18T13:12:31.307Z,101092.72
2019-02-18T13:14:57.776Z,101084.09
2019-02-18T13:17:23.856Z,101082.65
2019-02-18T13:19:49.955Z,101075.69
2019-02-18T13:22:15.938Z,101072.01
2019-02-18T13:24:41.993Z,101065.41
2019-02-18T13:27:08.056Z,101060.21
2019-02-18T13:29:34.067Z,101057.08
2019-02-18T13:32:00.147Z,101055.60
2019-02-18T13:34:26.192Z,101049.58
2019-02-18T13:36:52.180Z,101043.47
2019-02-18T13:39:18.252Z,101036.79
2019-02-18T13:41:44.232Z,101032.75
2019-02-18T13:44:10.346Z,101026.31
2019-02-18T13:46:36.424Z,101024.98
2019-02-18T13:49:02.521Z,101020.33
2019-02-18T13:51:28.576Z,101027.47
2019-02-18T13:53:54.557Z,101025.80
2019-02-18T13:56:20.537Z,101024.89
2019-02-18T13:58:46.997Z,101030.25
2019-02-18T14:01:13.099Z,101027.86
2019-02-18T14:03:39.078Z,101029.97
2019-02-18T14:06:05.162Z,101021.98
2019-02-18T14:08:31.147Z,101029.20
2019-02-18T14:10:57.138Z,101018.39
2019-02-18T14:13:23.202Z,101027.14
2019-02-18T14:15:49.248Z,101025.89
2019-02-18T14:18:15.718Z,101025.45
2019-02-18T14:20:41.717Z,101022.40
2019-02-18T14:23:07.779Z,101018.23
2019-02-18T14:25:33.772Z,101011.59
2019-02-18T14:27:59.831Z,101009.41
2019-02-18T14:30:25.929Z,101001.45
2019-02-18T14:32:51.928Z,100997.48
2019-02-18T14:35:17.923Z,100997.19
2019-02-18T14:37:43.898Z,100997.19
2019-02-18T14:40:10.090Z,100996.91
2019-02-18T14:42:36.087Z,100994.06
2019-02-18T14:45:02.158Z,100991.58
2019-02-18T14:47:28.214Z,100999.70
2019-02-18T14:49:54.221Z,100995.25
2019-02-18T14:52:20.302Z,100999.76
2019-02-18T14:54:46.292Z,101007.05
2019-02-18T14:57:12.300Z,101006.36
2019-02-18T14:59:38.672Z,101008.16
2019-02-18T15:02:04.712Z,101004.28
2019-02-18T15:04:30.774Z,100995.30
2019-02-18T15:06:56.863Z,100996.58
2019-02-18T15:09:22.942Z,101002.89
2019-02-18T15:11:49.015Z,101008.88
2019-02-18T15:14:15.008Z,101006.36
2019-02-18T15:16:41.116Z,101008.75
2019-02-18T15:19:07.592Z,101006.73
2019-02-18T15:21:33.641Z,101015.18
2019-02-18T15:23:59.642Z,101019.76
2019-02-18T15:26:25.727Z,101028.53
2019-02-18T15:28:51.724Z,101023.46
2019-02-18T15:31:17.720Z,101021.64
2019-02-18T15:33:43.816Z,101027.20
2019-02-18T15:36:09.899Z,101027.88
2019-02-18T15:38:36.103Z,101017.97
2019-02-18T15:41:02.180Z,101024.61
2019-02-18T15:43:28.166Z,101017.80
2019-02-18T15:45:54.145Z,101023.57
2019-02-18T15:48:20.226Z,101012.11
2019-02-18T15:50:46.308Z,101018.25
2019-02-18T15:53:12.329Z,101017.30
2019-02-18T15:55:38.378Z,101018.25
2019-02-18T15:58:04.460Z,101010.95
2019-02-18T16:00:30.807Z,101014.36
2019-02-18T16:02:56.887Z,101014.36
2019-02-18T16:05:22.869Z,101012.00
2019-02-18T16:07:48.859Z,101014.42
2019-02-18T16:10:14.852Z,101024.33
2019-02-18T16:12:41.033Z,101014.06
2019-02-18T16:15:07.373Z,101021.64
2019-02-18T16:17:33.664Z,101010.23
2019-02-18T16:20:00.040Z,101007.75
2019-02-18T16:22:26.096Z,101003.80
2019-02-18T16:24:52.117Z,101002.39
2019-02-18T16:27:18.117Z,101002.39
2019-02-18T16:29:44.126Z,101008.64
2019-02-18T16:32:10.128Z,101004.32
2019-02-18T16:34:36.138Z,101003.00
2019-02-18T16:37:02.509Z,100998.22
2019-02-18T16:39:28.505Z,101003.61
2019-02-18T16:41:54.858Z,101005.70
2019-02-18T16:44:20.933Z,101003.06
2019-02-18T16:46:47.019Z,101000.30
2019-02-18T16:49:13.430Z,101005.21
2019-02-18T16:51:39.495Z,101003.68
2019-02-18T16:54:05.510Z,101006.81
2019-02-18T16:56:31.670Z,101008.83
2019-02-18T16:58:58.159Z,101008.83
2019-02-18T17:01:24.217Z,101016.86
2019-02-18T17:03:50.277Z,101016.03
2019-02-18T17:06:16.339Z,101019.16
2019-02-18T17:08:42.451Z,101020.81
2019-02-18T17:11:08.496Z,101021.09
2019-02-18T17:13:34.568Z,101020.75
2019-02-18T17:16:00.656Z,101022.07
2019-02-18T17:18:26.874Z,101025.53
2019-02-18T17:20:53.013Z,101027.47
2019-02-18T17:23:19.260Z,101022.31
2019-02-18T17:25:48.462Z,101023.63
2019-02-18T17:28:14.278Z,101028.41
2019-02-18T17:30:40.348Z,101029.39
2019-02-18T17:33:06.336Z,101033.34
2019-02-18T17:35:32.374Z,101028.35
2019-02-18T17:37:58.573Z,101032.09
2019-02-18T17:40:24.833Z,101030.28
2019-02-18T17:42:50.926Z,101026.20
2019-02-18T17:45:16.999Z,101028.62
2019-02-18T17:47:43.121Z,101027.43
2019-02-18T17:50:09.196Z,101027.31
2019-02-18T17:52:35.406Z,101027.16
2019-02-18T17:55:01.495Z,101027.98
2019-02-18T17:57:27.588Z,101028.47
2019-02-18T17:59:54.011Z,101030.41
2019-02-18T18:02:20.065Z,101035.22
2019-02-18T18:04:46.238Z,101028.62
2019-02-18T18:07:12.292Z,101034.84
2019-02-18T18:09:38.295Z,101025.89
2019-02-18T18:12:04.297Z,101030.50
2019-02-18T18:14:30.297Z,101033.93
2019-02-18T18:16:56.359Z,101035.80
2019-02-18T18:19:22.523Z,101036.02
2019-02-18T18:21:48.655Z,101033.50
2019-02-18T18:24:14.691Z,101033.63
2019-02-18T18:26:40.825Z,101040.11
2019-02-18T18:29:06.871Z,101042.81
2019-02-18T18:31:32.902Z,101041.27
2019-02-18T18:33:58.953Z,101040.78
2019-02-18T18:36:24.978Z,101038.03
2019-02-18T18:38:50.989Z,101033.09
2019-02-18T18:41:17.429Z,101043.63
2019-02-18T18:43:43.433Z,101034.91
2019-02-18T18:46:09.452Z,101042.31
2019-02-18T18:48:35.529Z,101044.95
2019-02-18T18:51:01.543Z,101045.94
2019-02-18T18:53:27.628Z,101044.25
2019-02-18T18:55:53.688Z,101051.33
2019-02-18T18:58:19.703Z,101053.74
2019-02-18T19:00:45.964Z,101055.77
2019-02-18T19:03:12.001Z,101053.25
2019-02-18T19:05:38.114Z,101057.35
2019-02-18T19:08:04.118Z,101055.17
2019-02-18T19:10:32.221Z,101051.38
2019-02-18T19:12:58.305Z,101057.97
2019-02-18T19:15:24.389Z,101067.64
2019-02-18T19:17:50.811Z,101062.38
2019-02-18T19:20:16.848Z,101058.58
2019-02-18T19:22:42.868Z,101062.38
2019-02-18T19:25:08.948Z,101062.74
2019-02-18T19:27:35.191Z,101052.33
2019-02-18T19:30:01.187Z,101053.52
2019-02-18T19:32:27.228Z,101058.91
2019-02-18T19:34:53.326Z,101063.08
2019-02-18T19:37:19.729Z,101059.02
2019-02-18T19:39:45.745Z,101062.62
2019-02-18T19:42:11.812Z,101060.67
2019-02-18T19:44:37.917Z,101067.52
2019-02-18T19:47:03.915Z,101072.80
2019-02-18T19:49:29.921Z,101072.45
2019-02-18T19:51:55.942Z,101069.45
2019-02-18T19:54:22.056Z,101079.98
2019-02-18T19:56:48.427Z,101070.55
2019-02-18T19:59:14.418Z,101077.02
2019-02-18T20:01:40.623Z,101077.72
2019-02-18T20:04:06.683Z,101081.45
2019-02-18T20:06:32.678Z,101080.14
2019-02-18T20:08:58.698Z,101083.23
2019-02-18T20:11:24.808Z,101082.78
2019-02-18T20:13:58.569Z,101083.50
2019-02-18T20:16:18.716Z,101081.02
2019-02-18T20:18:44.823Z,101075.38
2019-02-18T20:21:10.807Z,101078.50
2019-02-18T20:23:36.933Z,101080.38
2019-02-18T20:26:03.391Z,101082.06
2019-02-18T20:28:29.834Z,101086.51
2019-02-18T20:30:55.976Z,101084.48
2019-02-18T20:33:22.167Z,101081.36
2019-02-18T20:35:48.475Z,101077.41
2019-02-18T20:38:14.557Z,101073.94
2019-02-18T20:40:40.581Z,101077.52
2019-02-18T20:43:07.684Z,101084.26
2019-02-18T20:45:33.698Z,101080.42
2019-02-18T20:47:59.820Z,101078.16
2019-02-18T20:50:25.876Z,101081.14
2019-02-18T20:52:51.891Z,101072.03
2019-02-18T20:55:18.069Z,101073.95
2019-02-18T20:57:44.105Z,101070.50
2019-02-18T21:00:10.284Z,101075.77
2019-02-18T21:02:36.266Z,101068.84
2019-02-18T21:05:02.248Z,101071.97
2019-02-18T21:07:28.348Z,101076.86
2019-02-18T21:09:54.388Z,101073.89
2019-02-18T21:12:21.395Z,101081.64
2019-02-18T21:14:47.867Z,101080.55
2019-02-18T21:17:13.886Z,101086.06
2019-02-18T21:19:39.947Z,101089.64
2019-02-18T21:22:05.979Z,101086.91
2019-02-18T21:24:32.090Z,101094.59
2019-02-18T21:26:58.169Z,101086.84
2019-02-18T21:29:24.221Z,101090.91
2019-02-18T21:31:50.422Z,101089.47
2019-02-18T21:34:16.701Z,101092.22
2019-02-18T21:36:42.721Z,101096.66
2019-02-18T21:39:08.732Z,101095.01
2019-02-18T21:41:34.711Z,101098.47
2019-02-18T21:44:00.858Z,101102.76
2019-02-18T21:46:26.854Z,101100.39
2019-02-18T21:48:52.865Z,101093.31
2019-02-18T21:51:18.878Z,101097.27
2019-02-18T21:53:45.239Z,101094.64
2019-02-18T21:56:11.306Z,101083.39
2019-02-18T21:58:37.436Z,101079.44
2019-02-18T22:01:03.537Z,101081.24
2019-02-18T22:03:29.626Z,101089.14
2019-02-18T22:05:55.604Z,101090.46
2019-02-18T22:08:21.651Z,101087.58
2019-02-18T22:10:47.630Z,101085.28
2019-02-18T22:13:13.723Z,101092.35
2019-02-18T22:15:39.702Z,101094.50
2019-02-18T22:18:05.773Z,101098.45
2019-02-18T22:20:31.757Z,101095.47
2019-02-18T22:22:57.809Z,101096.80
2019-02-18T22:25:23.832Z,101093.67
2019-02-18T22:27:49.852Z,101095.61
2019-02-18T22:30:15.891Z,101092.38
2019-02-18T22:32:41.948Z,101086.01
2019-02-18T22:35:07.949Z,101089.73
2019-02-18T22:37:34.128Z,101096.66
2019-02-18T22:40:00.362Z,101091.17
2019-02-18T22:42:26.690Z,101090.80
2019-02-18T22:44:53.060Z,101088.31
2019-02-18T22:47:19.354Z,101079.92
2019-02-18T22:49:45.493Z,101078.27
2019-02-18T22:52:11.489Z,101076.06
2019-02-18T22:54:37.512Z,101082.64
2019-02-18T22:57:03.520Z,101070.80
2019-02-18T22:59:29.913Z,101080.16
2019-02-18T23:01:55.915Z,101080.16
2019-02-18T23:04:21.931Z,101076.21
2019-02-18T23:06:47.924Z,101085.06
2019-02-18T23:09:13.924Z,101079.45
2019-02-18T23:11:40.021Z,101082.20
2019-02-18T23:14:06.004Z,101083.89
2019-02-18T23:16:32.000Z,101082.95
2019-02-18T23:18:58.096Z,101083.18
2019-02-18T23:21:24.191Z,101088.56
2019-02-18T23:23:50.156Z,101084.98
2019-02-18T23:26:16.168Z,101078.86
2019-02-18T23:28:42.146Z,101074.23
2019-02-18T23:31:08.163Z,101072.05
2019-02-18T23:33:34.162Z,101070.73
2019-02-18T23:36:00.226Z,101073.52
2019-02-18T23:38:26.224Z,101076.15
2019-02-18T23:40:52.200Z,101074.95
2019-02-18T23:43:18.179Z,101077.24
2019-02-18T23:45:44.171Z,101082.84
2019-02-18T23:48:10.176Z,101082.02
2019-02-18T23:50:36.223Z,101082.02
2019-02-18T23:53:02.217Z,101080.22
2019-02-18T23:55:28.229Z,101087.40
2019-02-18T23:57:54.204Z,101077.84
